createdAt,value
2022-10-31T00:02:00.896Z,6.25
2022-10-31T00:04:21.165Z,5.97
2022-10-31T00:06:40.915Z,5.32
2022-10-31T00:09:03.889Z,6.43
2022-10-31T00:11:24.161Z,6.47
2022-10-31T00:13:44.098Z,7.05
2022-10-31T00:16:04.308Z,6.75
2022-10-31T00:18:24.372Z,6.90
2022-10-31T00:20:44.022Z,6.82
2022-10-31T00:23:04.797Z,7.07
2022-10-31T00:25:24.613Z,6.35
2022-10-31T00:27:44.818Z,5.97
2022-10-31T00:30:05.652Z,5.82
2022-10-31T00:32:25.253Z,5.22
2022-10-31T00:34:44.887Z,5.38
2022-10-31T00:37:04.659Z,4.63
2022-10-31T00:39:24.833Z,5.10
2022-10-31T00:41:44.304Z,5.57
2022-10-31T00:44:03.988Z,3.88
2022-10-31T00:46:23.901Z,4.57
2022-10-31T00:48:43.528Z,5.68
2022-10-31T00:51:03.521Z,4.20
2022-10-31T00:53:23.666Z,5.35
2022-10-31T00:55:43.419Z,6.03
2022-10-31T00:58:03.507Z,5.25
2022-10-31T01:00:23.956Z,5.90
2022-10-31T01:02:43.793Z,5.68
2022-10-31T01:05:04.251Z,5.53
2022-10-31T01:07:23.931Z,6.78
2022-10-31T01:09:43.649Z,6.15
2022-10-31T01:12:03.613Z,5.35
2022-10-31T01:14:23.672Z,5.55
2022-10-31T01:16:43.363Z,5.60
2022-10-31T01:19:03.617Z,6.00
2022-10-31T01:21:25.610Z,5.25
2022-10-31T01:23:46.027Z,5.87
2022-10-31T01:26:12.407Z,5.72
2022-10-31T01:28:32.912Z,5.40
2022-10-31T01:30:52.443Z,5.53
2022-10-31T01:33:12.161Z,6.72
2022-10-31T01:35:31.889Z,5.75
2022-10-31T01:37:51.725Z,5.63
2022-10-31T01:40:11.508Z,5.45
2022-10-31T01:42:31.480Z,5.85
2022-10-31T01:45:00.890Z,6.18
2022-10-31T01:47:27.862Z,4.75
2022-10-31T01:49:52.674Z,4.38
2022-10-31T01:52:30.698Z,4.85
2022-10-31T01:54:58.475Z,3.78
2022-10-31T01:57:20.037Z,4.95
2022-10-31T01:59:44.884Z,6.03
2022-10-31T02:02:04.658Z,6.85
2022-10-31T02:04:25.938Z,4.95
2022-10-31T02:06:51.501Z,6.53
2022-10-31T02:09:13.340Z,5.75
2022-10-31T02:11:36.077Z,5.13
2022-10-31T02:13:56.557Z,5.95
2022-10-31T02:16:16.630Z,6.35
2022-10-31T02:18:36.225Z,6.40
2022-10-31T02:21:16.516Z,6.70
2022-10-31T02:24:00.987Z,6.00
2022-10-31T02:26:55.942Z,5.93
2022-10-31T02:29:46.315Z,5.97
2022-10-31T02:32:19.487Z,5.43
2022-10-31T02:35:01.087Z,5.03
2022-10-31T02:37:39.402Z,5.25
2022-10-31T02:40:17.614Z,5.88
2022-10-31T02:43:00.111Z,4.80
2022-10-31T02:45:20.550Z,3.83
2022-10-31T02:47:43.013Z,5.65
2022-10-31T02:50:12.483Z,6.05
2022-10-31T02:52:34.824Z,4.90
2022-10-31T02:54:55.022Z,6.10
2022-10-31T02:57:17.522Z,6.38
2022-10-31T02:59:44.943Z,5.82
2022-10-31T03:02:24.953Z,5.93
2022-10-31T03:04:50.250Z,4.75
2022-10-31T03:07:19.272Z,6.43
2022-10-31T03:09:50.853Z,5.03
2022-10-31T03:12:48.804Z,5.20
2022-10-31T03:15:18.252Z,5.90
2022-10-31T03:17:50.665Z,5.20
2022-10-31T03:20:11.614Z,5.73
2022-10-31T03:22:33.597Z,5.22
2022-10-31T03:24:55.419Z,5.55
2022-10-31T03:27:19.216Z,4.50
2022-10-31T03:29:40.558Z,4.63
2022-10-31T03:32:04.908Z,4.15
2022-10-31T03:34:24.999Z,3.90
2022-10-31T03:36:47.110Z,3.83
2022-10-31T03:39:13.004Z,3.05
2022-10-31T03:41:39.439Z,3.50
2022-10-31T03:44:05.387Z,4.07
2022-10-31T03:46:25.640Z,4.88
2022-10-31T03:48:45.968Z,4.38
2022-10-31T03:51:32.918Z,4.28
2022-10-31T03:53:57.900Z,4.43
2022-10-31T03:56:30.382Z,5.28
2022-10-31T03:59:16.491Z,5.45
2022-10-31T04:01:40.987Z,4.60
2022-10-31T04:04:01.556Z,4.53
2022-10-31T04:06:23.317Z,3.80
2022-10-31T04:08:50.179Z,4.70
2022-10-31T04:11:11.947Z,3.97
2022-10-31T04:13:35.957Z,4.32
2022-10-31T04:15:56.779Z,4.78
2022-10-31T04:18:16.345Z,4.22
2022-10-31T04:20:38.896Z,6.38
2022-10-31T04:22:59.444Z,4.47
2022-10-31T04:25:19.419Z,5.90
2022-10-31T04:27:39.078Z,6.10
2022-10-31T04:29:59.772Z,4.50
2022-10-31T04:32:19.559Z,4.45
2022-10-31T04:34:39.775Z,4.00
2022-10-31T04:36:59.331Z,5.05
2022-10-31T04:39:22.793Z,5.75
2022-10-31T04:41:46.651Z,4.53
2022-10-31T04:44:06.347Z,4.80
2022-10-31T04:46:26.085Z,5.68
2022-10-31T04:48:45.810Z,4.75
2022-10-31T04:51:05.936Z,4.10
2022-10-31T04:53:25.949Z,4.82
2022-10-31T04:55:45.383Z,4.18
2022-10-31T04:58:05.455Z,4.80
2022-10-31T05:00:25.896Z,5.07
2022-10-31T05:02:50.583Z,4.53
2022-10-31T05:05:10.776Z,3.88
2022-10-31T05:07:30.703Z,4.53
2022-10-31T05:09:50.467Z,4.95
2022-10-31T05:12:10.143Z,4.65
2022-10-31T05:14:30.002Z,4.20
2022-10-31T05:16:49.598Z,4.82
2022-10-31T05:19:09.530Z,4.85
2022-10-31T05:21:29.152Z,4.40
2022-10-31T05:23:48.911Z,3.83
2022-10-31T05:26:08.561Z,4.55
2022-10-31T05:28:28.623Z,5.40
2022-10-31T05:30:48.113Z,4.95
2022-10-31T05:33:07.836Z,3.08
2022-10-31T05:35:31.059Z,4.10
2022-10-31T05:40:12.428Z,4.35
2022-10-31T05:42:32.018Z,4.25
2022-10-31T05:44:51.710Z,5.53
2022-10-31T05:47:11.194Z,47.28
2022-10-31T05:49:31.016Z,25.48
2022-10-31T05:51:50.977Z,6.43
2022-10-31T05:54:15.710Z,4.25
2022-10-31T05:56:35.642Z,4.38
2022-10-31T05:58:55.329Z,4.75
2022-10-31T06:01:15.537Z,4.22
2022-10-31T06:03:35.585Z,5.22
2022-10-31T06:05:55.547Z,5.00
2022-10-31T06:08:15.305Z,4.22
2022-10-31T06:10:34.917Z,4.80
2022-10-31T06:12:54.560Z,4.78
2022-10-31T06:15:14.518Z,4.65
2022-10-31T06:17:35.585Z,5.35
2022-10-31T06:19:55.442Z,5.28
2022-10-31T06:22:15.185Z,4.20
2022-10-31T06:24:35.409Z,4.60
2022-10-31T06:26:55.072Z,4.07
2022-10-31T06:29:14.916Z,4.38
2022-10-31T06:31:34.528Z,4.57
2022-10-31T06:33:54.268Z,4.93
2022-10-31T06:36:14.020Z,4.70
2022-10-31T06:38:34.458Z,4.40
2022-10-31T06:40:54.834Z,4.60
2022-10-31T06:43:15.152Z,3.92
2022-10-31T06:45:35.198Z,3.80
2022-10-31T06:48:16.083Z,3.75
2022-10-31T06:50:36.314Z,3.42
2022-10-31T06:52:58.322Z,3.75
2022-10-31T06:55:18.402Z,3.90
2022-10-31T06:57:38.380Z,3.33
2022-10-31T06:59:58.155Z,4.05
2022-10-31T07:02:18.250Z,3.35
2022-10-31T07:04:38.565Z,4.13
2022-10-31T07:06:58.381Z,3.63
2022-10-31T07:09:18.147Z,2.53
2022-10-31T07:11:37.869Z,2.75
2022-10-31T07:13:57.692Z,3.03
2022-10-31T07:16:17.412Z,2.42
2022-10-31T07:18:36.997Z,4.63
2022-10-31T07:20:56.625Z,4.07
2022-10-31T07:23:16.605Z,3.20
2022-10-31T07:25:37.382Z,5.88
2022-10-31T07:27:57.684Z,3.95
2022-10-31T07:30:18.582Z,3.97
2022-10-31T07:32:43.190Z,4.60
2022-10-31T07:35:03.762Z,5.45
2022-10-31T07:37:27.507Z,5.53
2022-10-31T07:39:47.746Z,4.35
2022-10-31T07:42:07.549Z,3.88
2022-10-31T07:44:27.790Z,4.45
2022-10-31T07:46:47.456Z,2.78
2022-10-31T07:49:07.349Z,3.67
2022-10-31T07:51:27.488Z,2.97
2022-10-31T07:53:47.639Z,3.95
2022-10-31T07:56:07.329Z,3.65
2022-10-31T07:58:26.884Z,4.88
2022-10-31T08:00:48.380Z,4.38
2022-10-31T08:03:14.008Z,3.03
2022-10-31T08:05:34.906Z,2.83
2022-10-31T08:07:55.286Z,2.58
2022-10-31T08:10:16.354Z,2.05
2022-10-31T08:12:36.123Z,2.88
2022-10-31T08:14:56.347Z,2.20
2022-10-31T08:17:16.033Z,1.85
2022-10-31T08:19:35.693Z,1.85
2022-10-31T08:21:55.746Z,1.73
2022-10-31T08:24:15.803Z,1.40
2022-10-31T08:26:35.406Z,1.83
2022-10-31T08:28:55.339Z,1.88
2022-10-31T08:31:14.822Z,2.25
2022-10-31T08:33:34.511Z,2.33
2022-10-31T08:35:54.129Z,3.05
2022-10-31T08:38:14.616Z,2.17
2022-10-31T08:40:35.823Z,2.65
2022-10-31T08:43:04.178Z,2.78
2022-10-31T08:45:24.322Z,3.20
2022-10-31T08:47:43.812Z,2.80
2022-10-31T08:50:03.898Z,3.63
2022-10-31T08:52:44.221Z,3.38
2022-10-31T08:55:06.133Z,3.60
2022-10-31T08:57:25.800Z,3.20
2022-10-31T08:59:46.089Z,3.60
2022-10-31T09:02:06.029Z,3.95
2022-10-31T09:04:26.022Z,3.75
2022-10-31T09:07:07.821Z,3.50
2022-10-31T09:09:25.540Z,2.70
2022-10-31T09:11:45.156Z,3.55
2022-10-31T09:14:04.944Z,2.20
2022-10-31T09:16:25.370Z,2.42
2022-10-31T09:18:45.380Z,2.03
2022-10-31T09:21:05.082Z,2.58
2022-10-31T09:23:24.953Z,1.80
2022-10-31T09:25:50.197Z,1.60
2022-10-31T09:28:14.671Z,1.38
2022-10-31T09:30:35.620Z,1.30
2022-10-31T09:32:57.287Z,1.20
2022-10-31T09:35:19.177Z,1.67
2022-10-31T09:37:41.753Z,1.10
2022-10-31T09:40:01.480Z,1.02
2022-10-31T09:42:54.777Z,1.13
2022-10-31T09:45:31.904Z,1.25
2022-10-31T09:48:03.860Z,1.17
2022-10-31T09:50:33.740Z,1.20
2022-10-31T09:53:08.630Z,1.05
2022-10-31T09:55:37.124Z,1.58
2022-10-31T09:57:58.838Z,1.17
2022-10-31T10:00:21.827Z,1.73
2022-10-31T10:05:42.208Z,1.20
2022-10-31T10:08:10.998Z,1.00
2022-10-31T10:10:57.123Z,1.23
2022-10-31T10:13:45.402Z,1.33
2022-10-31T10:16:34.645Z,0.93
2022-10-31T10:19:18.109Z,0.98
2022-10-31T10:22:09.994Z,1.20
2022-10-31T10:24:54.608Z,0.90
2022-10-31T10:27:23.327Z,1.20
2022-10-31T10:30:16.151Z,0.80
2022-10-31T10:32:50.989Z,0.80
2022-10-31T10:35:35.347Z,0.90
2022-10-31T10:38:01.460Z,0.82
2022-10-31T10:40:25.563Z,1.00
2022-10-31T10:43:24.091Z,0.80
2022-10-31T10:46:11.603Z,0.85
2022-10-31T10:48:44.647Z,1.70
2022-10-31T10:51:20.302Z,1.25
2022-10-31T10:54:13.951Z,0.88
2022-10-31T10:56:39.486Z,1.40
2022-10-31T10:58:59.574Z,1.63
2022-10-31T11:01:19.306Z,1.50
2022-10-31T11:03:40.229Z,1.17
2022-10-31T11:06:01.763Z,1.70
2022-10-31T11:08:29.175Z,1.83
2022-10-31T11:10:59.987Z,0.80
2022-10-31T11:13:24.670Z,0.90
2022-10-31T11:16:15.516Z,0.70
2022-10-31T11:18:40.486Z,0.93
2022-10-31T11:21:06.008Z,0.73
2022-10-31T11:23:28.308Z,1.02
2022-10-31T11:25:58.635Z,0.70
2022-10-31T11:28:18.687Z,1.10
2022-10-31T11:30:53.770Z,0.70
2022-10-31T11:33:35.352Z,1.27
2022-10-31T11:35:58.025Z,0.80
2022-10-31T11:38:21.598Z,0.80
2022-10-31T11:40:53.375Z,0.80
2022-10-31T11:43:17.801Z,0.80
2022-10-31T11:45:37.655Z,0.88
2022-10-31T11:48:00.135Z,0.70
2022-10-31T11:52:50.916Z,1.00
2022-10-31T11:55:10.769Z,1.10
2022-10-31T11:57:48.009Z,0.80
2022-10-31T12:00:32.457Z,0.82
2022-10-31T12:03:12.493Z,1.02
2022-10-31T12:05:33.321Z,0.70
2022-10-31T12:07:53.063Z,0.80
2022-10-31T12:10:13.639Z,1.08
2022-10-31T12:12:51.517Z,1.00
2022-10-31T12:15:37.110Z,0.70
2022-10-31T12:18:02.901Z,0.90
2022-10-31T12:20:58.273Z,0.70
2022-10-31T12:23:55.270Z,0.85
2022-10-31T12:26:17.839Z,0.75
2022-10-31T12:31:39.379Z,0.60
2022-10-31T12:34:18.314Z,0.75
2022-10-31T12:37:01.543Z,0.63
2022-10-31T12:42:04.303Z,0.82
2022-10-31T12:45:02.944Z,0.70
2022-10-31T12:47:39.259Z,0.80
2022-10-31T12:50:30.208Z,0.70
2022-10-31T12:53:11.269Z,0.73
2022-10-31T12:55:59.858Z,0.70
2022-10-31T12:58:36.423Z,0.70
2022-10-31T13:01:11.895Z,1.08
2022-10-31T13:03:39.604Z,0.70
2022-10-31T13:06:05.867Z,0.70
2022-10-31T13:08:34.734Z,0.70
2022-10-31T13:11:19.170Z,0.70
2022-10-31T13:13:44.203Z,0.70
2022-10-31T13:16:19.587Z,0.70
2022-10-31T13:18:46.993Z,0.70
2022-10-31T13:21:18.126Z,0.77
2022-10-31T13:23:55.785Z,0.70
2022-10-31T13:26:31.201Z,0.70
2022-10-31T13:28:55.132Z,1.15
2022-10-31T13:31:15.248Z,0.80
2022-10-31T13:33:38.912Z,0.80
2022-10-31T13:36:23.695Z,0.80
2022-10-31T13:39:15.715Z,0.80
2022-10-31T13:41:41.381Z,0.80
2022-10-31T13:44:19.252Z,0.75
2022-10-31T13:49:29.732Z,0.73
2022-10-31T13:51:52.827Z,0.80
2022-10-31T13:54:32.932Z,0.88
2022-10-31T13:56:53.558Z,0.80
2022-10-31T13:59:22.936Z,0.90
2022-10-31T14:01:52.217Z,0.93
2022-10-31T14:04:24.941Z,0.80
2022-10-31T14:06:51.494Z,0.80
2022-10-31T14:09:23.658Z,0.93
2022-10-31T14:11:48.301Z,0.80
2022-10-31T14:14:12.744Z,0.90
2022-10-31T14:16:33.824Z,0.90
2022-10-31T14:19:18.033Z,1.30
2022-10-31T14:21:43.784Z,1.20
2022-10-31T14:24:23.132Z,1.00
2022-10-31T14:27:24.430Z,0.80
2022-10-31T14:29:47.974Z,1.10
2022-10-31T14:32:14.370Z,0.90
2022-10-31T14:34:42.397Z,0.90
2022-10-31T14:37:41.717Z,0.90
2022-10-31T14:40:25.442Z,0.90
2022-10-31T14:42:54.009Z,0.98
2022-10-31T14:45:32.036Z,0.80
2022-10-31T14:48:10.629Z,1.00
2022-10-31T14:50:36.939Z,0.82
2022-10-31T14:53:00.995Z,0.90
2022-10-31T14:55:22.727Z,1.02
2022-10-31T14:57:59.736Z,0.90
2022-10-31T15:00:22.335Z,0.90
2022-10-31T15:02:56.281Z,0.95
2022-10-31T15:05:16.792Z,0.90
2022-10-31T15:07:40.191Z,1.10
2022-10-31T15:10:03.267Z,1.00
2022-10-31T15:14:47.335Z,0.90
2022-10-31T15:17:09.493Z,1.15
2022-10-31T15:19:33.004Z,1.00
2022-10-31T15:21:54.849Z,1.83
2022-10-31T15:24:19.026Z,0.90
2022-10-31T15:26:43.842Z,1.70
2022-10-31T15:29:06.408Z,1.13
2022-10-31T15:31:26.509Z,1.30
2022-10-31T15:33:49.851Z,1.42
2022-10-31T15:36:27.348Z,1.00
2022-10-31T15:38:50.326Z,0.90
2022-10-31T15:41:30.503Z,1.15
2022-10-31T15:43:50.799Z,1.20
2022-10-31T15:46:10.916Z,1.10
2022-10-31T15:48:32.295Z,1.10
2022-10-31T15:50:55.778Z,1.40
2022-10-31T15:53:25.915Z,1.20
2022-10-31T15:55:58.277Z,1.10
2022-10-31T15:58:18.710Z,1.17
2022-10-31T16:00:39.187Z,1.67
2022-10-31T16:03:12.600Z,1.30
2022-10-31T16:05:45.831Z,1.00
2022-10-31T16:08:25.822Z,1.30
2022-10-31T16:10:45.622Z,1.95
2022-10-31T16:13:09.062Z,3.63
2022-10-31T16:15:30.133Z,2.60
2022-10-31T16:17:51.623Z,2.40
2022-10-31T16:20:27.523Z,2.10
2022-10-31T16:22:50.558Z,2.30
2022-10-31T16:25:17.128Z,2.38
2022-10-31T16:27:38.095Z,2.08
2022-10-31T16:30:04.596Z,2.53
2022-10-31T16:32:33.242Z,3.47
2022-10-31T16:35:20.048Z,4.90
2022-10-31T16:37:43.229Z,4.97
2022-10-31T16:40:03.533Z,2.72
2022-10-31T16:42:23.387Z,2.50
2022-10-31T16:44:47.086Z,2.13
2022-10-31T16:47:07.001Z,3.92
2022-10-31T16:49:26.619Z,2.20
2022-10-31T16:51:46.712Z,3.72
2022-10-31T16:54:06.638Z,2.95
2022-10-31T16:56:30.224Z,2.35
2022-10-31T16:58:50.372Z,3.33
2022-10-31T17:01:12.921Z,4.38
2022-10-31T17:03:33.227Z,3.70
2022-10-31T17:05:55.709Z,3.22
2022-10-31T17:08:15.838Z,4.07
2022-10-31T17:10:36.504Z,3.47
2022-10-31T17:12:57.551Z,2.83
2022-10-31T17:15:21.946Z,2.80
2022-10-31T17:17:41.558Z,2.33
2022-10-31T17:20:01.296Z,3.63
2022-10-31T17:22:20.950Z,3.35
2022-10-31T17:24:40.829Z,2.45
2022-10-31T17:27:00.376Z,3.22
2022-10-31T17:29:20.018Z,2.30
2022-10-31T17:31:39.719Z,2.65
2022-10-31T17:34:02.344Z,2.22
2022-10-31T17:36:23.799Z,2.95
2022-10-31T17:38:43.670Z,3.55
2022-10-31T17:41:10.929Z,6.75
2022-10-31T17:43:31.254Z,7.93
2022-10-31T17:45:50.784Z,6.05
2022-10-31T17:48:13.567Z,6.88
2022-10-31T17:50:33.292Z,3.95
2022-10-31T17:52:53.400Z,9.50
2022-10-31T17:55:14.107Z,13.52
2022-10-31T17:57:35.342Z,8.20
2022-10-31T17:59:55.054Z,11.40
2022-10-31T18:02:14.732Z,9.45
2022-10-31T18:04:35.481Z,12.98
2022-10-31T18:06:55.379Z,13.82
2022-10-31T18:09:15.175Z,11.35
2022-10-31T18:11:34.930Z,10.13
2022-10-31T18:13:56.213Z,8.85
2022-10-31T18:16:18.518Z,9.00
2022-10-31T18:18:38.706Z,15.67
2022-10-31T18:20:58.499Z,17.88
2022-10-31T18:23:18.621Z,8.90
2022-10-31T18:25:40.165Z,11.65
2022-10-31T18:28:00.319Z,13.15
2022-10-31T18:30:20.778Z,8.10
2022-10-31T18:32:40.757Z,6.70
2022-10-31T18:35:00.500Z,24.20
2022-10-31T18:37:20.221Z,15.85
2022-10-31T18:39:39.920Z,13.20
2022-10-31T18:41:59.651Z,10.75
2022-10-31T18:44:19.424Z,7.57
2022-10-31T18:46:39.315Z,4.47
2022-10-31T18:49:00.630Z,6.47
2022-10-31T18:51:20.567Z,7.60
2022-10-31T18:53:40.686Z,6.93
2022-10-31T18:56:01.017Z,4.43
2022-10-31T18:58:21.223Z,6.97
2022-10-31T19:00:41.441Z,8.23
2022-10-31T19:03:01.249Z,7.40
2022-10-31T19:05:21.359Z,7.35
2022-10-31T19:07:41.450Z,6.38
2022-10-31T19:10:00.981Z,12.25
2022-10-31T19:12:20.589Z,19.25
2022-10-31T19:14:40.238Z,26.27
2022-10-31T19:17:02.297Z,14.20
2022-10-31T19:19:22.538Z,13.40
2022-10-31T19:21:42.305Z,11.32
2022-10-31T19:24:01.960Z,8.35
2022-10-31T19:26:22.270Z,9.32
2022-10-31T19:28:42.201Z,7.70
2022-10-31T19:31:02.639Z,8.10
2022-10-31T19:33:22.823Z,9.65
2022-10-31T19:35:42.710Z,6.45
2022-10-31T19:38:02.603Z,8.15
2022-10-31T19:40:22.870Z,7.90
2022-10-31T19:42:42.485Z,7.18
2022-10-31T19:45:03.002Z,7.35
2022-10-31T19:47:23.063Z,6.10
2022-10-31T19:49:42.832Z,6.88
2022-10-31T19:52:02.889Z,5.57
2022-10-31T19:54:22.915Z,8.60
2022-10-31T19:56:42.746Z,8.20
2022-10-31T19:59:03.352Z,6.45
2022-10-31T20:01:23.569Z,6.53
2022-10-31T20:03:45.017Z,7.68
2022-10-31T20:06:05.606Z,6.25
2022-10-31T20:08:25.241Z,7.07
2022-10-31T20:11:01.388Z,6.97
2022-10-31T20:13:21.603Z,7.72
2022-10-31T20:15:41.464Z,6.43
2022-10-31T20:18:01.629Z,6.65
2022-10-31T20:20:21.850Z,6.45
2022-10-31T20:22:41.359Z,5.53
2022-10-31T20:25:01.091Z,5.32
2022-10-31T20:27:20.912Z,4.72
2022-10-31T20:29:40.648Z,5.72
2022-10-31T20:32:00.566Z,6.30
2022-10-31T20:34:20.253Z,12.82
2022-10-31T20:36:39.887Z,13.77
2022-10-31T20:38:59.972Z,11.70
2022-10-31T20:41:19.792Z,10.38
2022-10-31T20:43:39.585Z,11.80
2022-10-31T20:46:04.553Z,11.77
2022-10-31T20:48:25.081Z,11.88
2022-10-31T20:50:44.882Z,10.95
2022-10-31T20:53:05.372Z,9.75
2022-10-31T20:55:25.139Z,8.85
2022-10-31T20:57:45.183Z,10.65
2022-10-31T21:00:06.670Z,11.93
2022-10-31T21:02:26.668Z,10.88
2022-10-31T21:04:46.550Z,9.73
2022-10-31T21:07:06.477Z,8.60
2022-10-31T21:09:26.173Z,7.97
2022-10-31T21:11:45.968Z,7.85
2022-10-31T21:14:06.137Z,8.80
2022-10-31T21:16:29.365Z,10.13
2022-10-31T21:18:49.679Z,10.10
2022-10-31T21:21:13.444Z,10.10
2022-10-31T21:23:32.950Z,11.38
2022-10-31T21:25:52.516Z,8.80
2022-10-31T21:28:14.198Z,9.27
2022-10-31T21:30:39.454Z,8.13
2022-10-31T21:32:59.184Z,9.40
2022-10-31T21:35:18.928Z,9.05
2022-10-31T21:37:38.357Z,9.32
2022-10-31T21:39:58.019Z,8.38
2022-10-31T21:42:21.795Z,10.05
2022-10-31T21:44:41.703Z,9.35
2022-10-31T21:47:01.296Z,6.75
2022-10-31T21:49:21.050Z,6.40
2022-10-31T21:51:42.351Z,7.20
2022-10-31T21:54:21.158Z,5.78
2022-10-31T21:56:41.522Z,7.25
2022-10-31T21:59:01.636Z,7.00
2022-10-31T22:01:23.270Z,7.28
2022-10-31T22:03:43.444Z,6.38
2022-10-31T22:06:04.827Z,6.47
2022-10-31T22:08:24.337Z,6.40
2022-10-31T22:10:43.954Z,6.72
2022-10-31T22:13:03.397Z,8.25
2022-10-31T22:15:23.076Z,6.68
2022-10-31T22:17:42.685Z,6.63
2022-10-31T22:20:03.095Z,6.80
2022-10-31T22:22:22.902Z,5.63
2022-10-31T22:24:43.157Z,5.88
2022-10-31T22:27:03.145Z,6.13
2022-10-31T22:29:22.856Z,7.07
2022-10-31T22:31:44.905Z,10.43
2022-10-31T22:34:04.764Z,13.48
2022-10-31T22:36:26.844Z,11.63
2022-10-31T22:38:47.636Z,12.48
2022-10-31T22:41:12.260Z,12.38
2022-10-31T22:43:31.812Z,12.85
2022-10-31T22:46:00.254Z,12.60
2022-10-31T22:48:20.196Z,11.52
2022-10-31T22:50:40.002Z,10.00
2022-10-31T22:52:59.585Z,9.52
2022-10-31T22:55:19.459Z,10.30
2022-10-31T22:57:39.054Z,9.75
2022-10-31T22:59:58.652Z,11.23
2022-10-31T23:02:18.301Z,8.70
2022-10-31T23:04:38.281Z,7.28
2022-10-31T23:06:57.903Z,9.13
2022-10-31T23:09:18.709Z,9.73
2022-10-31T23:11:39.466Z,11.05
2022-10-31T23:14:09.675Z,10.10
2022-10-31T23:16:30.116Z,8.95
2022-10-31T23:18:50.701Z,9.02
2022-10-31T23:21:30.887Z,10.32
2022-10-31T23:23:50.761Z,8.70
2022-10-31T23:26:28.967Z,10.00
2022-10-31T23:28:48.665Z,8.90
2022-10-31T23:31:08.275Z,8.00
2022-10-31T23:33:31.460Z,9.18
2022-10-31T23:35:51.344Z,7.15
2022-10-31T23:38:11.453Z,7.70
2022-10-31T23:40:31.153Z,6.95
2022-10-31T23:42:50.653Z,6.28
2022-10-31T23:45:10.311Z,7.57
2022-10-31T23:47:29.942Z,6.63
2022-10-31T23:49:50.166Z,7.90
2022-10-31T23:52:11.011Z,9.90
2022-10-31T23:54:31.531Z,8.27
2022-10-31T23:56:52.261Z,7.82
2022-10-31T23:59:12.060Z,9.38
